sensor_id;sensor_type;location;lat;lon;timestamp;P1;durP1;ratioP1;P2;durP2;ratioP2
12660;SDS011;39039;51.802;5.710;2022-09-12T00:01:06;23.37;;;14.27;;
12660;SDS011;39039;51.802;5.710;2022-09-12T00:03:34;35.73;;;16.67;;
12660;SDS011;39039;51.802;5.710;2022-09-12T00:06:06;27.50;;;14.67;;
12660;SDS011;39039;51.802;5.710;2022-09-12T00:08:36;27.57;;;15.07;;
12660;SDS011;39039;51.802;5.710;2022-09-12T00:11:03;24.13;;;14.57;;
12660;SDS011;39039;51.802;5.710;2022-09-12T00:13:31;31.13;;;16.03;;
12660;SDS011;39039;51.802;5.710;2022-09-12T00:15:58;32.30;;;16.87;;
12660;SDS011;39039;51.802;5.710;2022-09-12T00:18:25;30.67;;;16.50;;
12660;SDS011;39039;51.802;5.710;2022-09-12T00:20:52;28.10;;;15.50;;
12660;SDS011;39039;51.802;5.710;2022-09-12T00:23:19;28.07;;;15.23;;
12660;SDS011;39039;51.802;5.710;2022-09-12T00:25:48;25.97;;;14.40;;
12660;SDS011;39039;51.802;5.710;2022-09-12T00:28:15;28.43;;;16.67;;
12660;SDS011;39039;51.802;5.710;2022-09-12T00:30:43;26.10;;;15.17;;
12660;SDS011;39039;51.802;5.710;2022-09-12T00:33:11;30.73;;;15.60;;
12660;SDS011;39039;51.802;5.710;2022-09-12T00:35:42;25.73;;;15.10;;
12660;SDS011;39039;51.802;5.710;2022-09-12T00:38:10;29.60;;;15.80;;
12660;SDS011;39039;51.802;5.710;2022-09-12T00:40:37;35.00;;;17.30;;
12660;SDS011;39039;51.802;5.710;2022-09-12T00:43:08;28.47;;;15.90;;
12660;SDS011;39039;51.802;5.710;2022-09-12T00:45:37;29.97;;;16.07;;
12660;SDS011;39039;51.802;5.710;2022-09-12T00:48:07;29.33;;;15.97;;
12660;SDS011;39039;51.802;5.710;2022-09-12T00:50:42;32.23;;;17.13;;
12660;SDS011;39039;51.802;5.710;2022-09-12T00:53:09;26.30;;;15.90;;
12660;SDS011;39039;51.802;5.710;2022-09-12T00:55:37;29.00;;;15.60;;
12660;SDS011;39039;51.802;5.710;2022-09-12T00:58:09;24.90;;;15.50;;
12660;SDS011;39039;51.802;5.710;2022-09-12T01:00:42;26.70;;;15.70;;
12660;SDS011;39039;51.802;5.710;2022-09-12T01:03:10;31.37;;;16.33;;
12660;SDS011;39039;51.802;5.710;2022-09-12T01:05:39;32.83;;;17.30;;
12660;SDS011;39039;51.802;5.710;2022-09-12T01:08:09;29.87;;;16.60;;
12660;SDS011;39039;51.802;5.710;2022-09-12T01:10:36;32.33;;;17.67;;
12660;SDS011;39039;51.802;5.710;2022-09-12T01:13:05;39.53;;;18.43;;
12660;SDS011;39039;51.802;5.710;2022-09-12T01:15:36;35.13;;;18.47;;
12660;SDS011;39039;51.802;5.710;2022-09-12T01:18:08;33.60;;;17.97;;
12660;SDS011;39039;51.802;5.710;2022-09-12T01:20:50;33.90;;;18.13;;
12660;SDS011;39039;51.802;5.710;2022-09-12T01:23:40;31.77;;;16.13;;
12660;SDS011;39039;51.802;5.710;2022-09-12T01:29:55;28.47;;;16.53;;
12660;SDS011;39039;51.802;5.710;2022-09-12T01:32:45;33.33;;;16.63;;
12660;SDS011;39039;51.802;5.710;2022-09-12T01:35:22;26.47;;;16.10;;
12660;SDS011;39039;51.802;5.710;2022-09-12T01:37:55;34.87;;;17.17;;
12660;SDS011;39039;51.802;5.710;2022-09-12T01:40:36;36.53;;;17.27;;
12660;SDS011;39039;51.802;5.710;2022-09-12T01:43:12;26.33;;;15.43;;
12660;SDS011;39039;51.802;5.710;2022-09-12T01:45:46;29.37;;;15.60;;
12660;SDS011;39039;51.802;5.710;2022-09-12T01:48:21;30.90;;;16.37;;
12660;SDS011;39039;51.802;5.710;2022-09-12T01:50:51;26.87;;;15.80;;
12660;SDS011;39039;51.802;5.710;2022-09-12T01:53:25;30.30;;;16.43;;
12660;SDS011;39039;51.802;5.710;2022-09-12T01:55:57;27.37;;;14.70;;
12660;SDS011;39039;51.802;5.710;2022-09-12T01:58:28;40.27;;;17.43;;
12660;SDS011;39039;51.802;5.710;2022-09-12T02:01:03;25.07;;;14.10;;
12660;SDS011;39039;51.802;5.710;2022-09-12T02:03:36;32.37;;;16.33;;
12660;SDS011;39039;51.802;5.710;2022-09-12T02:06:09;25.77;;;14.90;;
12660;SDS011;39039;51.802;5.710;2022-09-12T02:08:42;25.63;;;14.70;;
12660;SDS011;39039;51.802;5.710;2022-09-12T02:11:12;26.87;;;14.63;;
12660;SDS011;39039;51.802;5.710;2022-09-12T02:13:40;27.47;;;14.10;;
12660;SDS011;39039;51.802;5.710;2022-09-12T02:16:10;22.17;;;13.83;;
12660;SDS011;39039;51.802;5.710;2022-09-12T02:18:43;26.43;;;14.60;;
12660;SDS011;39039;51.802;5.710;2022-09-12T02:21:12;28.33;;;15.23;;
12660;SDS011;39039;51.802;5.710;2022-09-12T02:23:42;30.57;;;16.30;;
12660;SDS011;39039;51.802;5.710;2022-09-12T02:26:14;24.73;;;14.27;;
12660;SDS011;39039;51.802;5.710;2022-09-12T02:28:46;25.80;;;15.03;;
12660;SDS011;39039;51.802;5.710;2022-09-12T02:31:17;29.77;;;15.77;;
12660;SDS011;39039;51.802;5.710;2022-09-12T02:33:49;28.00;;;15.03;;
12660;SDS011;39039;51.802;5.710;2022-09-12T02:36:28;25.27;;;14.83;;
12660;SDS011;39039;51.802;5.710;2022-09-12T02:38:59;25.17;;;14.33;;
12660;SDS011;39039;51.802;5.710;2022-09-12T02:41:26;23.47;;;14.30;;
12660;SDS011;39039;51.802;5.710;2022-09-12T02:43:54;35.70;;;16.90;;
12660;SDS011;39039;51.802;5.710;2022-09-12T02:46:24;33.40;;;17.00;;
12660;SDS011;39039;51.802;5.710;2022-09-12T02:48:58;29.40;;;14.60;;
12660;SDS011;39039;51.802;5.710;2022-09-12T02:51:25;36.23;;;17.00;;
12660;SDS011;39039;51.802;5.710;2022-09-12T02:53:52;31.03;;;16.60;;
12660;SDS011;39039;51.802;5.710;2022-09-12T02:56:20;32.60;;;16.30;;
12660;SDS011;39039;51.802;5.710;2022-09-12T02:58:52;38.00;;;18.30;;
12660;SDS011;39039;51.802;5.710;2022-09-12T03:01:26;33.27;;;17.10;;
12660;SDS011;39039;51.802;5.710;2022-09-12T03:04:17;35.63;;;16.73;;
12660;SDS011;39039;51.802;5.710;2022-09-12T03:06:56;30.57;;;17.20;;
12660;SDS011;39039;51.802;5.710;2022-09-12T03:09:36;34.17;;;17.80;;
12660;SDS011;39039;51.802;5.710;2022-09-12T03:12:11;30.03;;;15.67;;
12660;SDS011;39039;51.802;5.710;2022-09-12T03:14:50;30.40;;;16.63;;
12660;SDS011;39039;51.802;5.710;2022-09-12T03:17:33;30.50;;;17.57;;
12660;SDS011;39039;51.802;5.710;2022-09-12T03:20:13;31.90;;;17.27;;
12660;SDS011;39039;51.802;5.710;2022-09-12T03:22:48;41.07;;;19.03;;
12660;SDS011;39039;51.802;5.710;2022-09-12T03:25:19;37.03;;;17.93;;
12660;SDS011;39039;51.802;5.710;2022-09-12T03:27:53;37.60;;;18.27;;
12660;SDS011;39039;51.802;5.710;2022-09-12T03:30:24;33.83;;;16.80;;
12660;SDS011;39039;51.802;5.710;2022-09-12T03:32:53;31.27;;;16.43;;
12660;SDS011;39039;51.802;5.710;2022-09-12T03:35:20;33.03;;;16.97;;
12660;SDS011;39039;51.802;5.710;2022-09-12T03:37:49;35.17;;;17.70;;
12660;SDS011;39039;51.802;5.710;2022-09-12T03:40:17;33.67;;;17.63;;
12660;SDS011;39039;51.802;5.710;2022-09-12T03:42:44;40.70;;;19.43;;
12660;SDS011;39039;51.802;5.710;2022-09-12T03:45:11;32.63;;;17.67;;
12660;SDS011;39039;51.802;5.710;2022-09-12T03:47:38;53.43;;;22.50;;
12660;SDS011;39039;51.802;5.710;2022-09-12T03:50:07;42.63;;;21.53;;
12660;SDS011;39039;51.802;5.710;2022-09-12T03:52:34;45.80;;;20.43;;
12660;SDS011;39039;51.802;5.710;2022-09-12T03:55:01;42.30;;;21.40;;
12660;SDS011;39039;51.802;5.710;2022-09-12T03:57:28;43.27;;;20.93;;
12660;SDS011;39039;51.802;5.710;2022-09-12T03:59:55;42.83;;;20.33;;
12660;SDS011;39039;51.802;5.710;2022-09-12T04:02:22;44.00;;;21.47;;
12660;SDS011;39039;51.802;5.710;2022-09-12T04:04:49;51.67;;;22.63;;
12660;SDS011;39039;51.802;5.710;2022-09-12T04:07:17;39.93;;;20.23;;
12660;SDS011;39039;51.802;5.710;2022-09-12T04:09:44;43.57;;;20.33;;
12660;SDS011;39039;51.802;5.710;2022-09-12T04:12:11;59.50;;;24.37;;
12660;SDS011;39039;51.802;5.710;2022-09-12T04:14:38;41.73;;;21.40;;
12660;SDS011;39039;51.802;5.710;2022-09-12T04:17:06;39.57;;;19.77;;
12660;SDS011;39039;51.802;5.710;2022-09-12T04:19:33;44.47;;;21.63;;
12660;SDS011;39039;51.802;5.710;2022-09-12T04:22:00;72.77;;;25.23;;
12660;SDS011;39039;51.802;5.710;2022-09-12T04:24:28;59.17;;;24.13;;
12660;SDS011;39039;51.802;5.710;2022-09-12T04:26:55;51.33;;;22.83;;
12660;SDS011;39039;51.802;5.710;2022-09-12T04:29:22;68.23;;;26.43;;
12660;SDS011;39039;51.802;5.710;2022-09-12T04:31:49;53.50;;;23.40;;
12660;SDS011;39039;51.802;5.710;2022-09-12T04:34:16;78.60;;;25.87;;
12660;SDS011;39039;51.802;5.710;2022-09-12T04:36:43;61.93;;;25.27;;
12660;SDS011;39039;51.802;5.710;2022-09-12T04:39:10;54.33;;;24.97;;
12660;SDS011;39039;51.802;5.710;2022-09-12T04:41:39;59.13;;;24.90;;
12660;SDS011;39039;51.802;5.710;2022-09-12T04:44:07;57.23;;;22.77;;
12660;SDS011;39039;51.802;5.710;2022-09-12T04:46:38;75.23;;;25.97;;
12660;SDS011;39039;51.802;5.710;2022-09-12T04:49:06;58.07;;;24.67;;
12660;SDS011;39039;51.802;5.710;2022-09-12T04:51:34;55.23;;;25.43;;
12660;SDS011;39039;51.802;5.710;2022-09-12T04:54:04;62.37;;;27.23;;
12660;SDS011;39039;51.802;5.710;2022-09-12T04:56:32;62.53;;;25.57;;
12660;SDS011;39039;51.802;5.710;2022-09-12T04:59:03;60.63;;;25.23;;
12660;SDS011;39039;51.802;5.710;2022-09-12T05:01:30;63.00;;;26.30;;
12660;SDS011;39039;51.802;5.710;2022-09-12T05:03:58;63.47;;;25.27;;
12660;SDS011;39039;51.802;5.710;2022-09-12T05:06:26;62.83;;;26.53;;
12660;SDS011;39039;51.802;5.710;2022-09-12T05:08:55;65.80;;;26.73;;
12660;SDS011;39039;51.802;5.710;2022-09-12T05:11:24;65.13;;;26.53;;
12660;SDS011;39039;51.802;5.710;2022-09-12T05:13:51;70.73;;;27.10;;
12660;SDS011;39039;51.802;5.710;2022-09-12T05:16:20;83.50;;;28.77;;
12660;SDS011;39039;51.802;5.710;2022-09-12T05:18:48;71.23;;;28.33;;
12660;SDS011;39039;51.802;5.710;2022-09-12T05:21:16;72.47;;;27.67;;
12660;SDS011;39039;51.802;5.710;2022-09-12T05:23:45;70.77;;;28.30;;
12660;SDS011;39039;51.802;5.710;2022-09-12T05:26:13;64.70;;;26.40;;
12660;SDS011;39039;51.802;5.710;2022-09-12T05:28:41;70.67;;;28.30;;
12660;SDS011;39039;51.802;5.710;2022-09-12T05:31:10;81.20;;;28.60;;
12660;SDS011;39039;51.802;5.710;2022-09-12T05:33:40;79.50;;;29.70;;
12660;SDS011;39039;51.802;5.710;2022-09-12T05:36:09;65.03;;;28.00;;
12660;SDS011;39039;51.802;5.710;2022-09-12T05:38:37;66.57;;;26.80;;
12660;SDS011;39039;51.802;5.710;2022-09-12T05:41:05;59.80;;;26.27;;
12660;SDS011;39039;51.802;5.710;2022-09-12T05:43:34;61.80;;;26.23;;
12660;SDS011;39039;51.802;5.710;2022-09-12T05:46:02;60.83;;;25.27;;
12660;SDS011;39039;51.802;5.710;2022-09-12T05:48:32;50.50;;;25.03;;
12660;SDS011;39039;51.802;5.710;2022-09-12T05:51:03;62.77;;;26.00;;
12660;SDS011;39039;51.802;5.710;2022-09-12T05:53:33;58.97;;;24.10;;
12660;SDS011;39039;51.802;5.710;2022-09-12T05:56:01;59.40;;;25.43;;
12660;SDS011;39039;51.802;5.710;2022-09-12T05:58:29;52.77;;;25.73;;
12660;SDS011;39039;51.802;5.710;2022-09-12T06:01:00;66.00;;;25.13;;
12660;SDS011;39039;51.802;5.710;2022-09-12T06:03:28;59.23;;;24.53;;
12660;SDS011;39039;51.802;5.710;2022-09-12T06:05:55;58.93;;;24.80;;
12660;SDS011;39039;51.802;5.710;2022-09-12T06:08:23;58.47;;;23.90;;
12660;SDS011;39039;51.802;5.710;2022-09-12T06:10:50;46.73;;;22.30;;
12660;SDS011;39039;51.802;5.710;2022-09-12T06:13:23;53.63;;;23.80;;
12660;SDS011;39039;51.802;5.710;2022-09-12T06:15:50;52.60;;;24.07;;
12660;SDS011;39039;51.802;5.710;2022-09-12T06:18:18;51.83;;;23.10;;
12660;SDS011;39039;51.802;5.710;2022-09-12T06:20:46;46.53;;;22.73;;
12660;SDS011;39039;51.802;5.710;2022-09-12T06:23:12;48.13;;;22.90;;
12660;SDS011;39039;51.802;5.710;2022-09-12T06:25:46;59.80;;;23.23;;
12660;SDS011;39039;51.802;5.710;2022-09-12T06:28:13;51.83;;;22.23;;
12660;SDS011;39039;51.802;5.710;2022-09-12T06:30:40;55.70;;;23.57;;
12660;SDS011;39039;51.802;5.710;2022-09-12T06:33:07;51.27;;;22.67;;
12660;SDS011;39039;51.802;5.710;2022-09-12T06:35:34;54.03;;;23.47;;
12660;SDS011;39039;51.802;5.710;2022-09-12T06:38:02;60.17;;;23.50;;
12660;SDS011;39039;51.802;5.710;2022-09-12T06:40:29;60.37;;;24.17;;
12660;SDS011;39039;51.802;5.710;2022-09-12T06:42:57;64.67;;;24.90;;
12660;SDS011;39039;51.802;5.710;2022-09-12T06:45:24;62.37;;;25.67;;
12660;SDS011;39039;51.802;5.710;2022-09-12T06:47:51;64.20;;;24.93;;
12660;SDS011;39039;51.802;5.710;2022-09-12T06:50:18;58.83;;;24.47;;
12660;SDS011;39039;51.802;5.710;2022-09-12T06:52:47;62.17;;;25.37;;
12660;SDS011;39039;51.802;5.710;2022-09-12T06:55:14;54.63;;;24.77;;
12660;SDS011;39039;51.802;5.710;2022-09-12T06:57:41;60.40;;;25.77;;
12660;SDS011;39039;51.802;5.710;2022-09-12T07:00:10;64.37;;;26.30;;
12660;SDS011;39039;51.802;5.710;2022-09-12T07:02:38;59.83;;;25.83;;
12660;SDS011;39039;51.802;5.710;2022-09-12T07:05:05;69.10;;;24.97;;
12660;SDS011;39039;51.802;5.710;2022-09-12T07:07:33;56.27;;;25.63;;
12660;SDS011;39039;51.802;5.710;2022-09-12T07:10:00;66.23;;;27.07;;
12660;SDS011;39039;51.802;5.710;2022-09-12T07:12:27;53.37;;;25.23;;
12660;SDS011;39039;51.802;5.710;2022-09-12T07:14:54;57.60;;;25.83;;
12660;SDS011;39039;51.802;5.710;2022-09-12T07:17:22;55.33;;;24.00;;
12660;SDS011;39039;51.802;5.710;2022-09-12T07:19:49;52.90;;;23.37;;
12660;SDS011;39039;51.802;5.710;2022-09-12T07:22:16;56.00;;;23.83;;
12660;SDS011;39039;51.802;5.710;2022-09-12T07:24:43;54.57;;;24.43;;
12660;SDS011;39039;51.802;5.710;2022-09-12T07:27:10;54.87;;;24.80;;
12660;SDS011;39039;51.802;5.710;2022-09-12T07:29:37;51.40;;;23.37;;
12660;SDS011;39039;51.802;5.710;2022-09-12T07:32:05;59.07;;;25.03;;
12660;SDS011;39039;51.802;5.710;2022-09-12T07:34:34;45.77;;;22.97;;
12660;SDS011;39039;51.802;5.710;2022-09-12T07:37:01;49.50;;;23.57;;
12660;SDS011;39039;51.802;5.710;2022-09-12T07:39:28;50.50;;;22.97;;
12660;SDS011;39039;51.802;5.710;2022-09-12T07:41:55;44.80;;;21.53;;
12660;SDS011;39039;51.802;5.710;2022-09-12T07:44:22;48.23;;;23.47;;
12660;SDS011;39039;51.802;5.710;2022-09-12T07:46:50;45.93;;;21.73;;
12660;SDS011;39039;51.802;5.710;2022-09-12T07:49:17;40.75;;;20.83;;
12660;SDS011;39039;51.802;5.710;2022-09-12T07:51:46;39.55;;;21.48;;
12660;SDS011;39039;51.802;5.710;2022-09-12T07:54:12;41.72;;;20.85;;
12660;SDS011;39039;51.802;5.710;2022-09-12T07:56:39;39.80;;;20.00;;
12660;SDS011;39039;51.802;5.710;2022-09-12T07:59:06;38.17;;;20.75;;
12660;SDS011;39039;51.802;5.710;2022-09-12T08:01:33;39.40;;;19.92;;
12660;SDS011;39039;51.802;5.710;2022-09-12T08:04:00;34.00;;;18.63;;
12660;SDS011;39039;51.802;5.710;2022-09-12T08:06:28;32.50;;;17.80;;
12660;SDS011;39039;51.802;5.710;2022-09-12T08:08:57;34.90;;;18.15;;
12660;SDS011;39039;51.802;5.710;2022-09-12T08:11:26;31.83;;;17.15;;
12660;SDS011;39039;51.802;5.710;2022-09-12T08:13:54;35.35;;;18.58;;
12660;SDS011;39039;51.802;5.710;2022-09-12T08:16:23;30.30;;;15.75;;
12660;SDS011;39039;51.802;5.710;2022-09-12T08:18:51;32.72;;;17.05;;
12660;SDS011;39039;51.802;5.710;2022-09-12T08:21:18;31.52;;;18.42;;
12660;SDS011;39039;51.802;5.710;2022-09-12T08:23:46;26.85;;;16.58;;
12660;SDS011;39039;51.802;5.710;2022-09-12T08:26:18;31.48;;;16.88;;
12660;SDS011;39039;51.802;5.710;2022-09-12T08:28:44;32.38;;;16.58;;
12660;SDS011;39039;51.802;5.710;2022-09-12T08:31:12;27.02;;;16.15;;
12660;SDS011;39039;51.802;5.710;2022-09-12T08:33:41;30.05;;;17.38;;
12660;SDS011;39039;51.802;5.710;2022-09-12T08:36:09;26.98;;;16.02;;
12660;SDS011;39039;51.802;5.710;2022-09-12T08:38:38;30.58;;;16.75;;
12660;SDS011;39039;51.802;5.710;2022-09-12T08:41:08;28.45;;;15.48;;
12660;SDS011;39039;51.802;5.710;2022-09-12T08:43:47;28.30;;;16.08;;
12660;SDS011;39039;51.802;5.710;2022-09-12T08:46:26;27.70;;;17.27;;
12660;SDS011;39039;51.802;5.710;2022-09-12T08:48:57;33.67;;;17.52;;
12660;SDS011;39039;51.802;5.710;2022-09-12T08:51:26;27.77;;;17.08;;
12660;SDS011;39039;51.802;5.710;2022-09-12T08:53:55;28.42;;;17.02;;
12660;SDS011;39039;51.802;5.710;2022-09-12T08:56:23;30.17;;;17.58;;
12660;SDS011;39039;51.802;5.710;2022-09-12T08:58:53;30.85;;;17.25;;
12660;SDS011;39039;51.802;5.710;2022-09-12T09:01:23;27.73;;;15.77;;
12660;SDS011;39039;51.802;5.710;2022-09-12T09:06:53;24.92;;;14.38;;
12660;SDS011;39039;51.802;5.710;2022-09-12T09:09:35;26.83;;;14.20;;
12660;SDS011;39039;51.802;5.710;2022-09-12T09:12:13;22.60;;;13.43;;
12660;SDS011;39039;51.802;5.710;2022-09-12T09:17:54;22.90;;;13.70;;
12660;SDS011;39039;51.802;5.710;2022-09-12T09:20:25;24.35;;;14.38;;
12660;SDS011;39039;51.802;5.710;2022-09-12T09:22:58;22.35;;;12.95;;
12660;SDS011;39039;51.802;5.710;2022-09-12T09:25:34;21.05;;;12.80;;
12660;SDS011;39039;51.802;5.710;2022-09-12T09:28:06;20.77;;;13.23;;
12660;SDS011;39039;51.802;5.710;2022-09-12T09:30:39;18.73;;;12.35;;
12660;SDS011;39039;51.802;5.710;2022-09-12T09:33:11;20.08;;;11.80;;
12660;SDS011;39039;51.802;5.710;2022-09-12T09:35:45;17.50;;;11.70;;
12660;SDS011;39039;51.802;5.710;2022-09-12T09:38:21;18.92;;;11.80;;
12660;SDS011;39039;51.802;5.710;2022-09-12T09:40:53;17.25;;;9.80;;
12660;SDS011;39039;51.802;5.710;2022-09-12T09:43:28;19.42;;;11.27;;
12660;SDS011;39039;51.802;5.710;2022-09-12T09:45:56;16.95;;;10.45;;
12660;SDS011;39039;51.802;5.710;2022-09-12T09:48:26;18.00;;;10.40;;
12660;SDS011;39039;51.802;5.710;2022-09-12T09:50:55;16.38;;;9.32;;
12660;SDS011;39039;51.802;5.710;2022-09-12T09:53:27;14.73;;;9.75;;
12660;SDS011;39039;51.802;5.710;2022-09-12T09:56:00;12.68;;;8.95;;
12660;SDS011;39039;51.802;5.710;2022-09-12T09:58:30;18.30;;;9.45;;
12660;SDS011;39039;51.802;5.710;2022-09-12T10:00:59;12.77;;;7.38;;
12660;SDS011;39039;51.802;5.710;2022-09-12T10:03:29;10.23;;;6.85;;
12660;SDS011;39039;51.802;5.710;2022-09-12T10:05:58;9.60;;;6.15;;
12660;SDS011;39039;51.802;5.710;2022-09-12T10:08:27;7.85;;;5.70;;
12660;SDS011;39039;51.802;5.710;2022-09-12T10:10:59;9.10;;;5.90;;
12660;SDS011;39039;51.802;5.710;2022-09-12T10:13:32;7.30;;;5.43;;
12660;SDS011;39039;51.802;5.710;2022-09-12T10:16:02;8.90;;;5.57;;
12660;SDS011;39039;51.802;5.710;2022-09-12T10:18:36;9.00;;;5.60;;
12660;SDS011;39039;51.802;5.710;2022-09-12T10:24:11;9.48;;;5.32;;
12660;SDS011;39039;51.802;5.710;2022-09-12T10:26:45;8.93;;;5.10;;
12660;SDS011;39039;51.802;5.710;2022-09-12T10:29:15;10.63;;;5.45;;
12660;SDS011;39039;51.802;5.710;2022-09-12T10:31:48;7.47;;;4.85;;
12660;SDS011;39039;51.802;5.710;2022-09-12T10:34:20;8.18;;;4.68;;
12660;SDS011;39039;51.802;5.710;2022-09-12T10:37:02;7.43;;;4.30;;
12660;SDS011;39039;51.802;5.710;2022-09-12T10:39:30;6.68;;;3.88;;
12660;SDS011;39039;51.802;5.710;2022-09-12T10:41:58;8.48;;;4.70;;
12660;SDS011;39039;51.802;5.710;2022-09-12T10:44:26;7.60;;;4.00;;
12660;SDS011;39039;51.802;5.710;2022-09-12T10:46:55;4.10;;;3.38;;
12660;SDS011;39039;51.802;5.710;2022-09-12T10:49:25;5.13;;;3.85;;
12660;SDS011;39039;51.802;5.710;2022-09-12T10:51:54;6.78;;;3.97;;
12660;SDS011;39039;51.802;5.710;2022-09-12T10:54:24;5.60;;;3.92;;
12660;SDS011;39039;51.802;5.710;2022-09-12T10:56:59;5.72;;;3.22;;
12660;SDS011;39039;51.802;5.710;2022-09-12T11:00:06;6.03;;;2.75;;
12660;SDS011;39039;51.802;5.710;2022-09-12T11:02:47;5.35;;;2.95;;
12660;SDS011;39039;51.802;5.710;2022-09-12T11:05:21;6.85;;;4.38;;
12660;SDS011;39039;51.802;5.710;2022-09-12T11:10:56;8.02;;;2.90;;
12660;SDS011;39039;51.802;5.710;2022-09-12T11:13:31;6.22;;;3.78;;
12660;SDS011;39039;51.802;5.710;2022-09-12T11:16:20;10.93;;;3.63;;
12660;SDS011;39039;51.802;5.710;2022-09-12T11:18:55;7.45;;;4.07;;
12660;SDS011;39039;51.802;5.710;2022-09-12T11:21:49;5.82;;;4.45;;
12660;SDS011;39039;51.802;5.710;2022-09-12T11:24:32;5.72;;;3.85;;
12660;SDS011;39039;51.802;5.710;2022-09-12T11:27:18;5.15;;;3.20;;
12660;SDS011;39039;51.802;5.710;2022-09-12T11:29:56;5.43;;;3.30;;
12660;SDS011;39039;51.802;5.710;2022-09-12T11:32:31;4.10;;;2.92;;
12660;SDS011;39039;51.802;5.710;2022-09-12T11:35:18;3.92;;;2.97;;
12660;SDS011;39039;51.802;5.710;2022-09-12T11:37:56;4.68;;;3.00;;
12660;SDS011;39039;51.802;5.710;2022-09-12T11:40:36;4.93;;;3.33;;
12660;SDS011;39039;51.802;5.710;2022-09-12T11:43:11;4.30;;;2.63;;
12660;SDS011;39039;51.802;5.710;2022-09-12T11:45:47;4.15;;;2.78;;
12660;SDS011;39039;51.802;5.710;2022-09-12T11:48:16;7.20;;;3.78;;
12660;SDS011;39039;51.802;5.710;2022-09-12T11:50:48;5.30;;;3.65;;
12660;SDS011;39039;51.802;5.710;2022-09-12T11:53:17;6.53;;;4.18;;
12660;SDS011;39039;51.802;5.710;2022-09-12T11:55:50;5.53;;;4.00;;
12660;SDS011;39039;51.802;5.710;2022-09-12T11:58:21;6.35;;;3.65;;
12660;SDS011;39039;51.802;5.710;2022-09-12T12:00:51;3.58;;;2.50;;
12660;SDS011;39039;51.802;5.710;2022-09-12T12:03:22;4.57;;;2.42;;
12660;SDS011;39039;51.802;5.710;2022-09-12T12:05:56;4.75;;;2.30;;
12660;SDS011;39039;51.802;5.710;2022-09-12T12:08:29;4.97;;;2.38;;
12660;SDS011;39039;51.802;5.710;2022-09-12T12:11:02;3.15;;;2.35;;
12660;SDS011;39039;51.802;5.710;2022-09-12T12:13:32;2.22;;;1.85;;
12660;SDS011;39039;51.802;5.710;2022-09-12T12:16:03;4.40;;;1.90;;
12660;SDS011;39039;51.802;5.710;2022-09-12T12:18:32;3.90;;;2.72;;
12660;SDS011;39039;51.802;5.710;2022-09-12T12:24:02;4.13;;;2.72;;
12660;SDS011;39039;51.802;5.710;2022-09-12T12:26:41;3.33;;;2.45;;
12660;SDS011;39039;51.802;5.710;2022-09-12T12:29:11;4.70;;;3.45;;
12660;SDS011;39039;51.802;5.710;2022-09-12T12:35:01;4.72;;;3.53;;
12660;SDS011;39039;51.802;5.710;2022-09-12T12:37:48;3.78;;;2.97;;
12660;SDS011;39039;51.802;5.710;2022-09-12T12:40:20;4.25;;;2.80;;
12660;SDS011;39039;51.802;5.710;2022-09-12T12:42:59;4.43;;;2.30;;
12660;SDS011;39039;51.802;5.710;2022-09-12T12:48:34;2.92;;;2.25;;
12660;SDS011;39039;51.802;5.710;2022-09-12T12:51:33;3.13;;;2.33;;
12660;SDS011;39039;51.802;5.710;2022-09-12T12:57:04;3.58;;;2.17;;
12660;SDS011;39039;51.802;5.710;2022-09-12T12:59:45;4.55;;;2.30;;
12660;SDS011;39039;51.802;5.710;2022-09-12T13:02:17;3.30;;;2.13;;
12660;SDS011;39039;51.802;5.710;2022-09-12T13:04:48;2.95;;;2.28;;
12660;SDS011;39039;51.802;5.710;2022-09-12T13:07:20;4.68;;;2.28;;
12660;SDS011;39039;51.802;5.710;2022-09-12T13:09:52;3.20;;;2.08;;
12660;SDS011;39039;51.802;5.710;2022-09-12T13:12:20;3.08;;;2.13;;
12660;SDS011;39039;51.802;5.710;2022-09-12T13:14:51;2.92;;;2.08;;
12660;SDS011;39039;51.802;5.710;2022-09-12T13:17:21;2.83;;;2.22;;
12660;SDS011;39039;51.802;5.710;2022-09-12T13:20:17;2.78;;;1.88;;
12660;SDS011;39039;51.802;5.710;2022-09-12T13:22:47;3.30;;;2.47;;
12660;SDS011;39039;51.802;5.710;2022-09-12T13:25:19;2.03;;;1.65;;
12660;SDS011;39039;51.802;5.710;2022-09-12T13:27:56;4.30;;;2.03;;
12660;SDS011;39039;51.802;5.710;2022-09-12T13:30:29;2.35;;;1.75;;
12660;SDS011;39039;51.802;5.710;2022-09-12T13:33:02;3.55;;;1.88;;
12660;SDS011;39039;51.802;5.710;2022-09-12T13:35:39;2.83;;;1.90;;
12660;SDS011;39039;51.802;5.710;2022-09-12T13:38:15;4.90;;;2.13;;
12660;SDS011;39039;51.802;5.710;2022-09-12T13:40:56;2.15;;;1.77;;
12660;SDS011;39039;51.802;5.710;2022-09-12T13:43:42;2.13;;;1.80;;
12660;SDS011;39039;51.802;5.710;2022-09-12T13:46:12;2.60;;;1.67;;
12660;SDS011;39039;51.802;5.710;2022-09-12T13:48:43;2.63;;;1.50;;
12660;SDS011;39039;51.802;5.710;2022-09-12T13:51:17;4.70;;;1.90;;
12660;SDS011;39039;51.802;5.710;2022-09-12T13:53:48;2.75;;;1.88;;
12660;SDS011;39039;51.802;5.710;2022-09-12T13:56:17;3.00;;;1.70;;
12660;SDS011;39039;51.802;5.710;2022-09-12T13:58:52;3.28;;;1.70;;
12660;SDS011;39039;51.802;5.710;2022-09-12T14:01:21;4.43;;;1.40;;
12660;SDS011;39039;51.802;5.710;2022-09-12T14:03:49;3.42;;;1.40;;
12660;SDS011;39039;51.802;5.710;2022-09-12T14:06:37;3.38;;;1.75;;
12660;SDS011;39039;51.802;5.710;2022-09-12T14:09:12;3.50;;;1.80;;
12660;SDS011;39039;51.802;5.710;2022-09-12T14:11:39;4.18;;;1.92;;
12660;SDS011;39039;51.802;5.710;2022-09-12T14:14:16;3.15;;;1.65;;
12660;SDS011;39039;51.802;5.710;2022-09-12T14:16:45;3.22;;;2.15;;
12660;SDS011;39039;51.802;5.710;2022-09-12T14:19:13;3.38;;;1.90;;
12660;SDS011;39039;51.802;5.710;2022-09-12T14:21:44;2.58;;;1.83;;
12660;SDS011;39039;51.802;5.710;2022-09-12T14:24:12;2.60;;;1.80;;
12660;SDS011;39039;51.802;5.710;2022-09-12T14:26:39;4.35;;;2.40;;
12660;SDS011;39039;51.802;5.710;2022-09-12T14:29:08;3.05;;;2.05;;
12660;SDS011;39039;51.802;5.710;2022-09-12T14:31:40;3.83;;;2.40;;
12660;SDS011;39039;51.802;5.710;2022-09-12T14:34:08;4.18;;;2.50;;
12660;SDS011;39039;51.802;5.710;2022-09-12T14:36:39;4.80;;;2.67;;
12660;SDS011;39039;51.802;5.710;2022-09-12T14:39:15;3.42;;;1.90;;
12660;SDS011;39039;51.802;5.710;2022-09-12T14:41:47;3.38;;;2.00;;
12660;SDS011;39039;51.802;5.710;2022-09-12T14:44:15;2.42;;;1.60;;
12660;SDS011;39039;51.802;5.710;2022-09-12T14:46:44;7.32;;;2.10;;
12660;SDS011;39039;51.802;5.710;2022-09-12T14:49:13;5.93;;;1.77;;
12660;SDS011;39039;51.802;5.710;2022-09-12T14:51:45;2.58;;;1.95;;
12660;SDS011;39039;51.802;5.710;2022-09-12T14:54:36;4.13;;;1.80;;
12660;SDS011;39039;51.802;5.710;2022-09-12T14:57:16;3.05;;;1.63;;
12660;SDS011;39039;51.802;5.710;2022-09-12T15:00:04;2.60;;;2.05;;
12660;SDS011;39039;51.802;5.710;2022-09-12T15:02:45;2.60;;;2.08;;
12660;SDS011;39039;51.802;5.710;2022-09-12T15:05:19;3.20;;;2.00;;
12660;SDS011;39039;51.802;5.710;2022-09-12T15:07:56;8.27;;;2.33;;
12660;SDS011;39039;51.802;5.710;2022-09-12T15:10:27;4.10;;;1.90;;
12660;SDS011;39039;51.802;5.710;2022-09-12T15:13:02;2.50;;;1.52;;
12660;SDS011;39039;51.802;5.710;2022-09-12T15:15:38;3.88;;;2.13;;
12660;SDS011;39039;51.802;5.710;2022-09-12T15:18:06;3.42;;;1.88;;
12660;SDS011;39039;51.802;5.710;2022-09-12T15:20:34;2.83;;;2.08;;
12660;SDS011;39039;51.802;5.710;2022-09-12T15:23:02;2.72;;;1.83;;